Time;durP1;ratioP1;P1;durP2;ratioP2;P2;SDS_P1;SDS_P2;PMS_P1;PMS_P2;Temp;Humidity;BMP_temperature;BMP_pressure;BME280_temperature;BME280_humidity;BME280_pressure;Samples;Min_cycle;Max_cycle;Signal;HPM_P1;HPM_P2
2024/04/18 00:04:32;;;;;;;1.10;0.90;;;;;;;;;;11083718;26;20012;-67
2024/04/18 00:09:33;;;;;;;5.55;1.75;;;;;;;;;;11101013;26;20095;-63
2024/04/18 00:14:34;;;;;;;2.17;1.15;;;;;;;;;;11122083;26;20046;-63
2024/04/18 00:19:35;;;;;;;2.58;1.02;;;;;;;;;;11124733;26;20456;-63
2024/04/18 00:24:37;;;;;;;1.90;1.02;;;;;;;;;;11122674;26;20312;-62
2024/04/18 00:29:38;;;;;;;4.00;1.17;;;;;;;;;;11098790;26;20039;-66
2024/04/18 00:34:39;;;;;;;3.30;1.20;;;;;;;;;;11099334;26;20538;-67
2024/04/18 00:39:40;;;;;;;9.57;1.13;;;;;;;;;;11120038;26;20047;-64
2024/04/18 00:44:42;;;;;;;1.80;1.00;;;;;;;;;;11117934;26;20032;-64
2024/04/18 00:49:43;;;;;;;6.82;1.42;;;;;;;;;;11123321;26;20039;-64
2024/04/18 00:54:44;;;;;;;4.95;1.15;;;;;;;;;;11092522;26;20016;-63
2024/04/18 00:59:47;;;;;;;5.07;1.10;;;;;;;;;;11118709;26;20341;-63
2024/04/18 01:04:49;;;;;;;2.22;1.23;;;;;;;;;;11121777;26;20004;-63
2024/04/18 01:09:50;;;;;;;1.33;0.98;;;;;;;;;;11121059;26;20130;-63
2024/04/18 01:14:51;;;;;;;1.38;0.80;;;;;;;;;;11120660;26;20049;-63
2024/04/18 01:19:52;;;;;;;1.65;1.10;;;;;;;;;;11098662;26;20099;-63
2024/04/18 01:24:53;;;;;;;5.57;1.10;;;;;;;;;;11108297;26;20029;-63
2024/04/18 01:29:54;;;;;;;1.50;1.10;;;;;;;;;;11085187;26;20009;-63
2024/04/18 01:34:56;;;;;;;3.63;0.90;;;;;;;;;;11109447;26;20446;-63
2024/04/18 01:39:57;;;;;;;1.58;0.90;;;;;;;;;;11121767;26;20001;-63
2024/04/18 01:44:58;;;;;;;2.28;1.10;;;;;;;;;;11118768;26;20076;-62
2024/04/18 01:49:59;;;;;;;3.83;1.17;;;;;;;;;;11096891;26;20107;-61
2024/04/18 01:55:00;;;;;;;2.20;0.90;;;;;;;;;;11092401;26;20032;-62
2024/04/18 02:00:01;;;;;;;2.25;1.20;;;;;;;;;;11121295;26;20106;-61
2024/04/18 02:05:02;;;;;;;17.13;1.38;;;;;;;;;;11112302;26;20455;-61
2024/04/18 02:10:04;;;;;;;9.40;1.10;;;;;;;;;;11096558;26;20024;-66
2024/04/18 02:15:05;;;;;;;3.13;1.38;;;;;;;;;;11123795;26;20694;-62
2024/04/18 02:20:07;;;;;;;4.22;1.08;;;;;;;;;;11107353;26;20463;-61
2024/04/18 02:25:10;;;;;;;2.72;0.88;;;;;;;;;;11114567;26;20107;-61
2024/04/18 02:30:11;;;;;;;1.73;1.00;;;;;;;;;;11126219;26;20004;-62
2024/04/18 02:35:12;;;;;;;1.33;0.95;;;;;;;;;;11127228;26;20518;-62
2024/04/18 02:40:14;;;;;;;2.22;1.10;;;;;;;;;;11125488;26;20028;-62
2024/04/18 02:45:15;;;;;;;1.02;0.82;;;;;;;;;;11125539;26;20194;-62
2024/04/18 02:50:16;;;;;;;1.35;0.98;;;;;;;;;;11124252;26;20004;-62
2024/04/18 02:55:17;;;;;;;1.27;0.80;;;;;;;;;;11123036;26;20080;-62
2024/04/18 03:00:18;;;;;;;1.80;0.77;;;;;;;;;;11094315;26;20004;-62
2024/04/18 03:05:19;;;;;;;1.33;0.90;;;;;;;;;;11126874;26;20080;-63
2024/04/18 03:10:21;;;;;;;2.65;1.00;;;;;;;;;;11125629;26;20500;-62
2024/04/18 03:15:22;;;;;;;0.95;0.90;;;;;;;;;;11124570;26;20097;-61
2024/04/18 03:20:23;;;;;;;1.85;1.00;;;;;;;;;;11124314;26;20047;-61
2024/04/18 03:25:24;;;;;;;1.02;0.93;;;;;;;;;;11111137;26;20033;-63
2024/04/18 03:30:25;;;;;;;2.35;0.85;;;;;;;;;;11125954;26;20004;-61
2024/04/18 03:35:26;;;;;;;0.90;0.75;;;;;;;;;;11124110;26;20040;-62
2024/04/18 03:40:27;;;;;;;1.45;0.90;;;;;;;;;;11099792;26;20589;-61
2024/04/18 03:45:29;;;;;;;1.10;1.00;;;;;;;;;;11125683;26;20031;-62
2024/04/18 03:50:30;;;;;;;3.28;1.42;;;;;;;;;;11126337;26;20095;-64
2024/04/18 03:55:31;;;;;;;2.47;0.80;;;;;;;;;;11101410;26;20421;-64
2024/04/18 04:00:32;;;;;;;1.65;0.93;;;;;;;;;;11122865;26;20338;-64
2024/04/18 04:05:33;;;;;;;2.40;1.02;;;;;;;;;;11122360;26;19993;-65
2024/04/18 04:10:34;;;;;;;1.40;0.90;;;;;;;;;;11098352;26;19996;-65
2024/04/18 04:15:36;;;;;;;1.02;0.80;;;;;;;;;;11122637;26;20028;-65
2024/04/18 04:20:37;;;;;;;1.17;1.00;;;;;;;;;;11120520;26;20030;-63
2024/04/18 04:25:39;;;;;;;2.25;0.93;;;;;;;;;;11116857;26;20073;-62
2024/04/18 04:30:40;;;;;;;0.90;0.85;;;;;;;;;;11123327;26;20011;-62
2024/04/18 04:35:41;;;;;;;2.15;1.05;;;;;;;;;;11120797;26;20032;-61
2024/04/18 04:40:42;;;;;;;1.48;1.05;;;;;;;;;;11123836;26;20036;-62
2024/04/18 04:45:43;;;;;;;1.40;0.82;;;;;;;;;;11118172;26;20504;-61
2024/04/18 04:51:01;;;;;;;1.33;0.70;;;;;;;;;;11123333;26;20004;-61
2024/04/18 04:56:02;;;;;;;0.90;0.88;;;;;;;;;;11105791;26;21566;-60
2024/04/18 05:01:04;;;;;;;1.15;0.90;;;;;;;;;;11124477;26;20023;-62
2024/04/18 05:06:05;;;;;;;0.82;0.82;;;;;;;;;;11123836;26;20000;-62
2024/04/18 05:11:06;;;;;;;1.15;0.85;;;;;;;;;;11122109;26;20078;-62
2024/04/18 05:16:07;;;;;;;3.92;0.85;;;;;;;;;;11122602;26;20036;-62
2024/04/18 05:21:09;;;;;;;0.98;0.63;;;;;;;;;;11082268;26;20046;-61
2024/04/18 05:26:11;;;;;;;2.92;0.90;;;;;;;;;;11101342;26;20111;-61
2024/04/18 05:31:12;;;;;;;1.58;0.82;;;;;;;;;;11117245;26;20428;-62
2024/04/18 05:36:13;;;;;;;0.82;0.77;;;;;;;;;;11121953;26;20012;-63
2024/04/18 05:41:14;;;;;;;10.23;0.93;;;;;;;;;;11105175;26;20000;-67
2024/04/18 05:46:15;;;;;;;10.75;1.30;;;;;;;;;;11114037;26;22497;-64
2024/04/18 05:51:16;;;;;;;4.72;1.08;;;;;;;;;;11111594;26;20205;-67
2024/04/18 05:56:18;;;;;;;5.70;0.85;;;;;;;;;;11119266;26;20376;-65
2024/04/18 06:01:19;;;;;;;1.45;1.20;;;;;;;;;;11105007;26;20081;-65
2024/04/18 06:06:20;;;;;;;1.00;0.93;;;;;;;;;;11101706;26;20420;-63
2024/04/18 06:11:41;;;;;;;7.03;1.15;;;;;;;;;;11113512;26;20103;-62
2024/04/18 06:16:43;;;;;;;7.50;1.40;;;;;;;;;;11105585;26;20119;-62
2024/04/18 06:21:44;;;;;;;1.33;1.00;;;;;;;;;;11090498;26;20120;-61
2024/04/18 06:26:45;;;;;;;4.63;1.02;;;;;;;;;;11097358;26;20011;-63
2024/04/18 06:31:46;;;;;;;6.05;1.20;;;;;;;;;;11093443;26;19997;-62
2024/04/18 06:36:47;;;;;;;4.72;1.35;;;;;;;;;;11081908;26;20036;-62
2024/04/18 06:41:48;;;;;;;5.63;1.10;;;;;;;;;;11115404;26;20016;-62
2024/04/18 06:46:49;;;;;;;4.30;1.10;;;;;;;;;;11117248;26;20016;-62
2024/04/18 06:51:50;;;;;;;1.58;1.15;;;;;;;;;;11119515;26;20471;-62
2024/04/18 06:56:52;;;;;;;8.05;1.10;;;;;;;;;;11119672;26;20083;-61
2024/04/18 07:01:53;;;;;;;10.23;1.35;;;;;;;;;;11123905;26;19997;-61
2024/04/18 07:06:54;;;;;;;10.70;1.10;;;;;;;;;;11128405;26;20428;-61
2024/04/18 07:11:57;;;;;;;2.45;1.20;;;;;;;;;;11123579;26;20102;-61
2024/04/18 07:16:58;;;;;;;1.90;1.00;;;;;;;;;;11104153;26;20018;-60
2024/04/18 07:21:59;;;;;;;5.22;1.42;;;;;;;;;;11124164;26;20419;-60
2024/04/18 07:27:00;;;;;;;2.38;1.10;;;;;;;;;;11118962;26;20015;-61
2024/04/18 07:32:02;;;;;;;3.22;1.13;;;;;;;;;;11081425;26;20004;-61
2024/04/18 07:37:03;;;;;;;1.92;1.00;;;;;;;;;;11088298;26;20486;-63
2024/04/18 07:42:05;;;;;;;2.13;1.00;;;;;;;;;;11092945;26;20024;-61
2024/04/18 07:47:07;;;;;;;5.72;1.40;;;;;;;;;;11090179;26;20012;-62
2024/04/18 07:52:11;;;;;;;3.78;0.95;;;;;;;;;;11121683;26;20019;-62
2024/04/18 07:57:13;;;;;;;3.78;1.10;;;;;;;;;;11124669;26;20000;-62
2024/04/18 08:02:14;;;;;;;4.68;1.50;;;;;;;;;;11123389;26;20547;-62
2024/04/18 08:07:15;;;;;;;4.40;1.33;;;;;;;;;;11124680;26;20040;-62
2024/04/18 08:12:16;;;;;;;2.08;0.98;;;;;;;;;;11100178;26;20534;-62
2024/04/18 08:17:17;;;;;;;2.20;1.27;;;;;;;;;;11122159;26;20127;-62
2024/04/18 08:22:18;;;;;;;1.92;1.13;;;;;;;;;;11098739;26;20004;-62
2024/04/18 08:27:20;;;;;;;3.45;1.17;;;;;;;;;;11098281;26;20039;-62
2024/04/18 08:32:21;;;;;;;2.63;1.17;;;;;;;;;;11120297;26;20129;-62
2024/04/18 08:37:22;;;;;;;5.07;1.10;;;;;;;;;;11124525;26;20107;-62
2024/04/18 08:42:23;;;;;;;2.47;1.20;;;;;;;;;;11121798;26;19996;-62
2024/04/18 08:47:27;;;;;;;1.90;1.33;;;;;;;;;;11123230;26;20000;-62
2024/04/18 08:52:34;;;;;;;2.67;1.20;;;;;;;;;;11121410;26;20008;-61
2024/04/18 08:57:48;;;;;;;5.30;1.20;;;;;;;;;;11123381;26;20000;-62
2024/04/18 09:02:49;;;;;;;6.25;1.20;;;;;;;;;;11121738;26;20150;-62
2024/04/18 09:07:51;;;;;;;2.67;1.23;;;;;;;;;;11099152;26;20461;-61
2024/04/18 09:12:52;;;;;;;4.38;1.10;;;;;;;;;;11100244;26;20013;-62
2024/04/18 09:18:05;;;;;;;1.92;1.02;;;;;;;;;;11122057;26;20542;-62
2024/04/18 09:23:07;;;;;;;2.00;1.00;;;;;;;;;;11100369;26;20000;-61
2024/04/18 09:28:08;;;;;;;2.42;0.98;;;;;;;;;;11089669;26;20459;-61
2024/04/18 09:33:10;;;;;;;1.13;0.98;;;;;;;;;;11099634;26;20004;-62
2024/04/18 09:38:14;;;;;;;3.72;1.30;;;;;;;;;;11111819;26;20001;-61
2024/04/18 09:43:26;;;;;;;1.30;0.85;;;;;;;;;;11054873;26;20045;-62
2024/04/18 09:48:40;;;;;;;3.30;0.90;;;;;;;;;;11121479;26;20455;-62
2024/04/18 09:53:47;;;;;;;2.00;1.20;;;;;;;;;;11020918;26;20052;-62
2024/04/18 09:59:26;;;;;;;4.18;1.08;;;;;;;;;;10970397;26;20349;-62
2024/04/18 10:04:49;;;;;;;6.10;1.30;;;;;;;;;;11043488;26;20005;-62
2024/04/18 10:10:01;;;;;;;1.15;0.90;;;;;;;;;;11021092;26;20031;-61
2024/04/18 10:15:30;;;;;;;1.15;0.90;;;;;;;;;;11020207;26;20016;-62
2024/04/18 10:20:58;;;;;;;1.60;1.10;;;;;;;;;;10967770;26;20011;-61
2024/04/18 10:26:14;;;;;;;1.67;1.13;;;;;;;;;;11012477;26;20107;-62
2024/04/18 10:31:21;;;;;;;1.83;1.10;;;;;;;;;;11036862;26;20472;-62
2024/04/18 10:36:37;;;;;;;7.57;1.30;;;;;;;;;;11030559;26;20001;-61
2024/04/18 10:42:27;;;;;;;2.05;1.38;;;;;;;;;;11054822;26;20000;-62
2024/04/18 10:47:37;;;;;;;2.72;1.33;;;;;;;;;;11026090;26;20011;-61
2024/04/18 10:53:53;;;;;;;2.80;0.85;;;;;;;;;;10959470;26;20078;-62
2024/04/18 10:59:32;;;;;;;0.95;0.90;;;;;;;;;;11053384;26;20001;-61
2024/04/18 11:05:02;;;;;;;1.15;0.93;;;;;;;;;;11036153;26;20016;-61
2024/04/18 11:10:33;;;;;;;6.70;1.38;;;;;;;;;;11049497;26;19997;-61
2024/04/18 11:16:01;;;;;;;1.15;0.93;;;;;;;;;;10989562;26;20357;-62
2024/04/18 11:21:28;;;;;;;3.42;0.75;;;;;;;;;;11050931;26;20016;-62
2024/04/18 11:27:15;;;;;;;0.90;0.90;;;;;;;;;;11017991;26;20052;-62
2024/04/18 11:33:03;;;;;;;1.20;0.77;;;;;;;;;;10922435;26;20082;-62
2024/04/18 11:38:34;;;;;;;1.13;1.02;;;;;;;;;;11019719;26;20001;-61
2024/04/18 11:43:48;;;;;;;0.75;0.75;;;;;;;;;;11022754;26;20095;-61
2024/04/18 11:49:09;;;;;;;1.50;1.00;;;;;;;;;;10956708;26;20001;-62
2024/04/18 11:55:15;;;;;;;0.80;0.80;;;;;;;;;;11020882;26;20081;-61
2024/04/18 12:00:51;;;;;;;1.42;0.98;;;;;;;;;;11020753;26;20001;-62
2024/04/18 12:06:08;;;;;;;2.10;1.00;;;;;;;;;;10988470;26;20005;-61
2024/04/18 12:11:40;;;;;;;1.90;0.90;;;;;;;;;;11010132;26;20005;-61
2024/04/18 12:16:51;;;;;;;1.70;0.70;;;;;;;;;;10882414;27;20345;-61
2024/04/18 12:22:10;;;;;;;2.35;0.93;;;;;;;;;;10894228;27;20007;-61
2024/04/18 12:27:23;;;;;;;1.02;0.82;;;;;;;;;;10885517;27;20031;-61
2024/04/18 12:32:33;;;;;;;0.80;0.80;;;;;;;;;;10900928;27;20080;-60
2024/04/18 12:37:46;;;;;;;0.85;0.85;;;;;;;;;;10895698;27;20018;-61
2024/04/18 12:43:17;;;;;;;3.63;0.80;;;;;;;;;;10906677;27;20003;-61
2024/04/18 12:48:23;;;;;;;0.90;0.90;;;;;;;;;;10895971;27;20002;-62
2024/04/18 12:53:55;;;;;;;3.83;1.10;;;;;;;;;;10857349;27;20217;-62
2024/04/18 12:59:19;;;;;;;2.55;1.05;;;;;;;;;;10904271;27;20002;-62
2024/04/18 13:05:47;;;;;;;0.70;0.70;;;;;;;;;;10881948;27;20018;-61
2024/04/18 13:11:06;;;;;;;1.13;1.00;;;;;;;;;;10854593;27;20018;-61
2024/04/18 13:16:57;;;;;;;0.82;0.75;;;;;;;;;;10895095;27;20041;-61
2024/04/18 13:34:36;;;;;;;0.68;0.68;;;;;;;;;;10911920;26;20471;-60
2024/04/18 13:40:03;;;;;;;1.85;0.82;;;;;;;;;;10834721;27;20013;-60
2024/04/18 13:45:29;;;;;;;0.75;0.75;;;;;;;;;;10878289;27;20434;-60
2024/04/18 13:50:54;;;;;;;1.77;0.80;;;;;;;;;;10885226;27;19998;-61
2024/04/18 13:56:04;;;;;;;0.70;0.70;;;;;;;;;;10899368;27;20017;-62
2024/04/18 14:01:09;;;;;;;0.70;0.70;;;;;;;;;;10880604;27;20107;-61
2024/04/18 14:06:36;;;;;;;3.15;1.23;;;;;;;;;;10865711;27;20026;-62
2024/04/18 14:12:19;;;;;;;1.35;0.80;;;;;;;;;;10858887;27;20096;-58
2024/04/18 14:23:28;;;;;;;0.95;0.80;;;;;;;;;;10882282;26;20014;-62
2024/04/18 14:28:38;;;;;;;0.95;0.80;;;;;;;;;;10940124;26;20400;-62
2024/04/18 14:33:50;;;;;;;0.73;0.70;;;;;;;;;;10972243;26;20088;-62
2024/04/18 14:39:00;;;;;;;0.70;0.70;;;;;;;;;;10943143;26;20034;-61
2024/04/18 14:44:05;;;;;;;1.30;1.00;;;;;;;;;;10891424;26;20005;-62
2024/04/18 14:49:11;;;;;;;0.85;0.82;;;;;;;;;;10883884;26;20013;-61
2024/04/18 14:54:13;;;;;;;1.25;0.80;;;;;;;;;;10955537;26;20014;-60
2024/04/18 14:59:24;;;;;;;1.00;0.90;;;;;;;;;;10934573;26;20013;-60
2024/04/18 15:04:32;;;;;;;1.92;0.93;;;;;;;;;;10958911;26;20006;-61
2024/04/18 15:09:40;;;;;;;14.95;1.95;;;;;;;;;;10896130;26;20001;-53
2024/04/18 15:14:53;;;;;;;12.63;1.48;;;;;;;;;;10934203;26;20006;-49
2024/04/18 15:20:06;;;;;;;9.18;1.10;;;;;;;;;;10917044;26;20013;-52
2024/04/18 15:25:15;;;;;;;20.38;1.67;;;;;;;;;;10945719;26;20006;-59
2024/04/18 15:30:28;;;;;;;7.90;1.30;;;;;;;;;;10900608;26;20006;-54
2024/04/18 15:35:30;;;;;;;6.80;1.33;;;;;;;;;;10931541;26;20397;-64
2024/04/18 15:40:35;;;;;;;11.57;1.33;;;;;;;;;;10937346;26;19997;-54
2024/04/18 15:45:39;;;;;;;11.48;1.20;;;;;;;;;;10914224;26;19998;-58
2024/04/18 15:50:42;;;;;;;9.57;1.55;;;;;;;;;;10959337;26;20083;-48
2024/04/18 15:55:43;;;;;;;6.55;1.02;;;;;;;;;;10958705;26;20368;-53
2024/04/18 16:00:44;;;;;;;5.57;1.10;;;;;;;;;;10939963;26;20010;-48
2024/04/18 16:05:47;;;;;;;8.90;1.35;;;;;;;;;;10936476;26;20003;-52
2024/04/18 16:10:49;;;;;;;1.17;0.85;;;;;;;;;;10918560;26;20002;-52
2024/04/18 16:16:05;;;;;;;2.67;1.00;;;;;;;;;;10948530;26;20042;-49
2024/04/18 16:21:07;;;;;;;3.55;1.13;;;;;;;;;;10927643;26;20091;-62
2024/04/18 16:26:08;;;;;;;7.90;1.20;;;;;;;;;;10932808;26;20040;-59
2024/04/18 16:31:10;;;;;;;4.85;1.00;;;;;;;;;;10919279;26;20003;-50
2024/04/18 16:36:13;;;;;;;7.75;1.20;;;;;;;;;;10970399;26;20029;-55
2024/04/18 16:41:15;;;;;;;2.67;1.10;;;;;;;;;;10939424;26;20446;-59
2024/04/18 16:46:17;;;;;;;2.08;1.00;;;;;;;;;;10912449;26;20023;-48
2024/04/18 16:51:18;;;;;;;2.28;1.25;;;;;;;;;;10940222;26;20013;-51
2024/04/18 16:56:21;;;;;;;1.35;0.85;;;;;;;;;;10933028;26;20408;-51
2024/04/18 17:01:22;;;;;;;1.67;1.20;;;;;;;;;;10932892;26;20005;-58
2024/04/18 17:06:24;;;;;;;1.20;0.90;;;;;;;;;;10900287;26;20419;-52
2024/04/18 17:11:26;;;;;;;1.63;1.05;;;;;;;;;;10924894;26;20002;-49
2024/04/18 17:16:27;;;;;;;0.80;0.75;;;;;;;;;;10935491;26;20002;-58
2024/04/18 17:21:28;;;;;;;4.75;1.08;;;;;;;;;;10933819;26;20341;-61
2024/04/18 17:26:29;;;;;;;1.70;0.85;;;;;;;;;;10955748;26;20474;-62
2024/04/18 17:31:30;;;;;;;1.70;0.95;;;;;;;;;;10938001;26;20449;-52
2024/04/18 17:36:31;;;;;;;0.90;0.90;;;;;;;;;;10915430;26;20030;-47
2024/04/18 17:41:33;;;;;;;1.88;1.00;;;;;;;;;;10936081;26;20250;-50
2024/04/18 17:46:34;;;;;;;0.98;0.77;;;;;;;;;;10955470;26;20002;-47
2024/04/18 17:51:35;;;;;;;2.22;1.00;;;;;;;;;;10947373;26;20526;-52
2024/04/18 17:56:36;;;;;;;4.05;1.00;;;;;;;;;;10932521;26;20001;-51
2024/04/18 18:01:40;;;;;;;3.72;1.00;;;;;;;;;;10963851;26;20022;-61
2024/04/18 18:06:41;;;;;;;1.65;0.80;;;;;;;;;;10948161;26;19999;-66
2024/04/18 18:11:42;;;;;;;1.50;1.00;;;;;;;;;;10973110;26;20025;-55
2024/04/18 18:16:43;;;;;;;2.42;1.27;;;;;;;;;;10970012;26;20437;-61
2024/04/18 18:21:45;;;;;;;1.50;0.95;;;;;;;;;;10948529;26;20006;-58
2024/04/18 18:26:46;;;;;;;3.00;1.20;;;;;;;;;;10955478;26;20409;-59
2024/04/18 18:31:47;;;;;;;1.45;0.80;;;;;;;;;;10963327;26;20044;-58
2024/04/18 18:36:48;;;;;;;1.45;0.90;;;;;;;;;;10956338;26;20045;-61
2024/04/18 18:41:50;;;;;;;3.20;0.95;;;;;;;;;;10964165;26;20392;-63
2024/04/18 18:46:51;;;;;;;2.50;1.00;;;;;;;;;;10967088;26;20084;-63
2024/04/18 18:51:52;;;;;;;4.20;0.95;;;;;;;;;;10955668;26;20070;-66
2024/04/18 18:56:53;;;;;;;3.33;1.10;;;;;;;;;;10965885;26;20371;-49
2024/04/18 19:01:54;;;;;;;4.53;1.30;;;;;;;;;;10973252;26;20034;-51
2024/04/18 19:06:56;;;;;;;2.20;1.10;;;;;;;;;;10956614;26;20002;-52
2024/04/18 19:11:57;;;;;;;0.80;0.80;;;;;;;;;;10957235;26;19999;-51
2024/04/18 19:17:01;;;;;;;2.08;1.38;;;;;;;;;;10958968;26;20041;-48
2024/04/18 19:22:05;;;;;;;7.10;1.00;;;;;;;;;;10963388;26;20006;-52
2024/04/18 19:27:06;;;;;;;3.25;1.13;;;;;;;;;;10971344;26;20012;-51
2024/04/18 19:32:07;;;;;;;1.45;1.10;;;;;;;;;;10947052;26;20071;-51
2024/04/18 19:37:08;;;;;;;4.88;1.05;;;;;;;;;;10924335;26;20034;-52
2024/04/18 19:42:10;;;;;;;0.88;0.88;;;;;;;;;;10939705;26;20056;-49
2024/04/18 19:47:11;;;;;;;3.35;1.20;;;;;;;;;;10955884;26;20325;-54
2024/04/18 19:52:12;;;;;;;3.03;0.90;;;;;;;;;;10958642;26;20052;-52
2024/04/18 19:57:13;;;;;;;1.38;0.98;;;;;;;;;;10942496;26;20025;-54
2024/04/18 20:02:14;;;;;;;2.08;1.20;;;;;;;;;;10942192;26;20006;-52
2024/04/18 20:07:15;;;;;;;2.25;1.00;;;;;;;;;;10932966;26;20042;-54
2024/04/18 20:12:16;;;;;;;0.90;0.90;;;;;;;;;;10943994;26;20033;-50
2024/04/18 20:17:17;;;;;;;0.85;0.82;;;;;;;;;;10938617;26;20400;-52
2024/04/18 20:22:20;;;;;;;1.77;1.02;;;;;;;;;;10947881;26;20453;-48
2024/04/18 20:27:24;;;;;;;4.22;1.17;;;;;;;;;;10973215;26;20348;-51
2024/04/18 20:32:26;;;;;;;2.13;1.10;;;;;;;;;;10944313;26;20013;-51
2024/04/18 20:37:27;;;;;;;1.15;1.05;;;;;;;;;;10971640;26;20005;-54
2024/04/18 20:42:28;;;;;;;1.77;1.10;;;;;;;;;;11003272;26;20021;-49
2024/04/18 20:47:29;;;;;;;4.47;1.50;;;;;;;;;;11004268;26;20068;-55
2024/04/18 20:52:30;;;;;;;2.38;0.93;;;;;;;;;;11007569;26;20036;-61
2024/04/18 20:57:32;;;;;;;3.10;1.00;;;;;;;;;;10977692;26;20006;-65
2024/04/18 21:02:33;;;;;;;1.05;0.98;;;;;;;;;;10974238;26;20453;-52
2024/04/18 21:07:34;;;;;;;0.95;0.90;;;;;;;;;;10976632;26;20033;-51
2024/04/18 21:12:35;;;;;;;4.22;1.35;;;;;;;;;;10975075;26;20001;-52
2024/04/18 21:17:36;;;;;;;5.05;1.45;;;;;;;;;;10976377;26;20094;-52
2024/04/18 21:22:37;;;;;;;4.38;1.30;;;;;;;;;;10965724;26;20077;-49
2024/04/18 21:27:38;;;;;;;3.38;1.40;;;;;;;;;;10965980;26;20001;-50
2024/04/18 21:32:39;;;;;;;3.40;1.45;;;;;;;;;;10956971;26;20010;-52
2024/04/18 21:37:40;;;;;;;3.42;1.48;;;;;;;;;;10967450;26;20577;-59
2024/04/18 21:42:42;;;;;;;1.40;1.10;;;;;;;;;;10940338;26;19998;-52
2024/04/18 21:47:43;;;;;;;5.95;1.80;;;;;;;;;;10962741;26;20017;-48
2024/04/18 21:52:44;;;;;;;6.95;1.50;;;;;;;;;;10970933;26;20009;-50
2024/04/18 21:57:45;;;;;;;4.90;1.85;;;;;;;;;;10967195;26;20412;-54
2024/04/18 22:02:46;;;;;;;4.82;1.67;;;;;;;;;;10972280;26;20100;-52
2024/04/18 22:07:47;;;;;;;6.43;2.33;;;;;;;;;;10965575;26;20489;-57
2024/04/18 22:12:48;;;;;;;6.30;1.73;;;;;;;;;;10964073;26;20033;-50
2024/04/18 22:17:49;;;;;;;3.60;1.48;;;;;;;;;;10964059;26;20079;-56
2024/04/18 22:22:51;;;;;;;9.07;2.17;;;;;;;;;;10946862;26;20124;-55
2024/04/18 22:27:58;;;;;;;3.58;1.75;;;;;;;;;;10979215;26;20338;-58
2024/04/18 22:32:59;;;;;;;10.40;1.90;;;;;;;;;;10939128;26;20504;-53
2024/04/18 22:38:00;;;;;;;17.45;2.00;;;;;;;;;;10964074;26;20079;-61
2024/04/18 22:43:02;;;;;;;2.83;1.88;;;;;;;;;;10963729;26;20013;-52
2024/04/18 22:48:03;;;;;;;2.97;1.45;;;;;;;;;;10957050;26;20013;-53
2024/04/18 22:53:04;;;;;;;7.50;1.75;;;;;;;;;;10947105;26;20129;-52
2024/04/18 22:58:08;;;;;;;5.90;1.67;;;;;;;;;;10937089;26;20006;-67
2024/04/18 23:03:09;;;;;;;4.40;1.45;;;;;;;;;;10929963;26;19998;-65
2024/04/18 23:08:11;;;;;;;4.78;1.67;;;;;;;;;;10967441;26;20006;-49
2024/04/18 23:13:12;;;;;;;5.07;2.17;;;;;;;;;;10962954;26;20091;-49
2024/04/18 23:18:13;;;;;;;7.40;1.60;;;;;;;;;;10941794;26;20030;-50
2024/04/18 23:23:14;;;;;;;12.65;1.92;;;;;;;;;;10960115;26;20006;-53
2024/04/18 23:28:15;;;;;;;6.20;1.80;;;;;;;;;;10964123;26;20013;-49
2024/04/18 23:33:16;;;;;;;5.00;1.80;;;;;;;;;;10958312;26;20105;-51
2024/04/18 23:38:17;;;;;;;5.05;1.27;;;;;;;;;;10915117;26;20266;-50
2024/04/18 23:43:19;;;;;;;10.38;1.58;;;;;;;;;;10944577;26;20006;-49
2024/04/18 23:48:21;;;;;;;5.43;1.42;;;;;;;;;;10973553;26;20071;-50
2024/04/18 23:53:22;;;;;;;4.25;1.23;;;;;;;;;;10964855;26;20113;-52
2024/04/18 23:58:23;;;;;;;2.88;1.30;;;;;;;;;;10948116;26;20017;-49
